Tiempo atmosférico en la estación meteorológica de Castell Del Ferro, Granada (235 m.)



Fecha
DESCASC
Temp. máxima en grados centígrados (hora)
DESCASC
Temp. mínima en grados centígrados (hora)
DESCASC
Temp. media en grados centígrados
DESCASC
Racha de viento máxima en m/sg (hora)
DESCASC
Velocidad máxima media en intervalos de 10 minutos(hora)
DESCASC
Precipitaciones diarias en mm
DESCASC
Precipitaciones de 00:00 a 06:00 en mm
DESCASC
Precipitaciones de 06:00 a 12:00 en mm
DESCASC
Precipitaciones de 12:00 a 18:00 en mm
DESCASC
Precipitaciones de 18:00 a 24:00 en mm
DESCASC

Gráficas

Temp. máximas Temp. mínimas Temp. medias Precipitaciones Rachas de viento máximas Velocidades máximas media en intervalos de 10 minutos

Datos horarios

Fecha y hora oficial Temperatura (ºC) Velocidad del viento (km/h) Dirección del viento Racha (km/h) Dirección de racha Precipitación (mm) Presión (hPa) Tendencia (hPa) Humedad (%)
2021-03-01 23:00:00 13.6 17 Sudoeste 28 Sudoeste 0 -- -- 79
2021-03-01 22:00:00 14 18 Sudoeste 31 Sudoeste 0 -- -- 75
2021-03-01 21:00:00 13.7 0 Calma 11 Oeste 0 -- -- 77
2021-03-01 20:00:00 13.6 4 Sur 19 Sudeste 0 -- -- 83
2021-03-01 19:00:00 14.3 9 Sur 19 Sudeste 0 -- -- 80
2021-03-01 18:00:00 14.7 8 Sudeste 23 Sudeste 0 -- -- 78
2021-03-01 17:00:00 15.3 9 Sudeste 21 Este 0 -- -- 71
2021-03-01 16:00:00 16 3 Nordeste 13 Sudeste 0 -- -- 65
2021-03-01 15:00:00 16.5 6 Sudeste 13 Sur 0 -- -- 59
2021-03-01 14:00:00 16.8 8 Sudeste 16 Sudeste 0 -- -- 59
2021-03-01 13:00:00 17.5 6 Sur 15 Sudoeste 0 -- -- 51
2021-03-01 12:00:00 17.1 2 Nordeste 12 Sudeste 0 -- -- 57
2021-03-01 11:00:00 16 3 Este 14 Sur 0 -- -- 66
2021-03-01 10:00:00 14.9 2 Sur 8 Sur 0 -- -- 65
2021-03-01 09:00:00 12.9 3 Oeste 10 Sur 0 -- -- 72
2021-03-01 08:00:00 12.5 4 Oeste 13 Noroeste 0 -- -- 70
2021-03-01 07:00:00 11.8 5 Sudoeste 11 Sudoeste 0 -- -- 79
2021-03-01 06:00:00 11.9 3 Sur 12 Sudeste 0 -- -- 80
2021-03-01 05:00:00 12.9 10 Sudeste 21 Sudeste 0 -- -- 77
2021-03-01 04:00:00 14.1 7 Oeste 17 Norte 0 -- -- 59
2021-03-01 03:00:00 12.9 6 Noroeste 23 Noroeste 0 -- -- 69
2021-03-01 02:00:00 12 12 Noroeste 17 Noroeste 2 -- -- 81
2021-03-01 01:00:00 12.7 17 Sudoeste 32 Oeste 1.4 -- -- 83
2021-03-01 00:00:00 14.6 14 Noroeste 24 Noroeste 0 -- -- 62
2021-02-28 23:00:00 13.2 9 Oeste 17 Sudeste 0 -- -- 74
2021-02-28 22:00:00 12.6 9 Sur 18 Sudeste 0 -- -- 80
2021-02-28 21:00:00 13 15 Sudeste 25 Sudeste 0 -- -- 79
2021-02-28 20:00:00 13.6 17 Sudeste 29 Sudeste 0 -- -- 79
2021-02-28 19:00:00 14.1 12 Sudeste 27 Este 0 -- -- 75
2021-02-28 18:00:00 14.6 19 Este 36 Este 0 -- -- 71
2021-02-28 17:00:00 14.8 19 Este 38 Sudeste 0 -- -- 74
2021-02-28 16:00:00 15.7 19 Este 29 Este 0 -- -- 71
2021-02-28 15:00:00 16.2 18 Sudeste 27 Sudeste 0 -- -- 66
2021-02-28 14:00:00 16.4 12 Este 23 Sudeste 0 -- -- 61
2021-02-28 13:00:00 16.2 8 Sudeste 20 Sudeste 0 -- -- 55
2021-02-28 12:00:00 15.9 6 Sudeste 18 Sudeste 0 -- -- 51
2021-02-28 11:00:00 15.6 6 Este 12 Este 0 -- -- 59
2021-02-28 10:00:00 13.8 2 Este 5 Nordeste 0 -- -- 63
2021-02-28 09:00:00 11.8 0 Calma 5 Sur 0 -- -- 74
2021-02-28 08:00:00 10.8 3 Sudoeste 5 Sudoeste 0 -- -- 75
2021-02-28 07:00:00 10.8 3 Sudoeste 6 Oeste 0 -- -- 75
2021-02-28 06:00:00 10.3 6 Sudoeste 9 Sudoeste 0 -- -- 77
2021-02-28 05:00:00 10.3 4 Sudoeste 8 Oeste 0 -- -- 80
2021-02-28 04:00:00 10.1 3 Sudoeste 8 Sudoeste 0 -- -- 82
2021-02-28 03:00:00 10.1 0 Calma 9 Oeste 0 -- -- 85
2021-02-28 02:00:00 10.8 3 Oeste 9 Sudeste 0 -- -- 84
2021-02-28 01:00:00 11.8 5 Sudeste 11 Este 0 -- -- 82
2021-02-28 00:00:00 12 7 Sudeste 11 Sudeste 0 -- -- 83
2021-02-27 23:00:00 12 5 Este 13 Sudeste 0 -- -- 82
2021-02-27 22:00:00 12 9 Sudeste 19 Sudeste 0 -- -- 82
2021-02-27 21:00:00 12.1 13 Sudeste 23 Sudeste 0 -- -- 79
2021-02-27 20:00:00 12.8 14 Este 24 Este 0 -- -- 77
2021-02-27 19:00:00 13.2 14 Este 25 Este 0 -- -- 77
2021-02-27 18:00:00 13.6 15 Este 22 Sudeste 0 -- -- 72
2021-02-27 17:00:00 13.8 13 Este 21 Sudeste 0 -- -- 72
2021-02-27 16:00:00 14.6 13 Este 22 Este 0 -- -- 68
2021-02-27 15:00:00 14.7 13 Sudeste 20 Sudeste 0 -- -- 68
2021-02-27 14:00:00 15.5 10 Sudeste 22 Sudeste 0 -- -- 58
2021-02-27 13:00:00 15.2 10 Sudeste 20 Sudeste 0 -- -- 62
2021-02-27 12:00:00 14.7 4 Este 13 Sudeste 0 -- -- 60
2021-02-27 11:00:00 13.8 5 Este 14 Sudeste 0 -- -- 77
2021-02-27 10:00:00 12.9 4 Este 9 Noroeste 0 -- -- 81
2021-02-27 09:00:00 11.9 2 Oeste 5 Sur 0 -- -- 86
2021-02-27 08:00:00 11.1 3 Sur 5 Sudoeste 0 -- -- 87
2021-02-27 07:00:00 11.6 2 Sudeste 5 Sudoeste 0 -- -- 84
2021-02-27 06:00:00 11.5 4 Sur 5 Sudoeste 0 -- -- 84
2021-02-27 05:00:00 11.7 2 Sur 5 Sur 0 -- -- 83
2021-02-27 04:00:00 12.2 4 Sudeste 11 Sudeste 0 -- -- 82
2021-02-27 03:00:00 12.2 6 Sur 11 Sur 0 -- -- 84
2021-02-27 02:00:00 12.2 4 Sur 8 Sur 0 -- -- 85
2021-02-27 01:00:00 12.4 4 Sur 9 Sudeste 0 -- -- 84
2021-02-27 00:00:00 12.4 4 Sur 10 Sudeste 0 -- -- 86
2021-02-26 23:00:00 12.2 5 Sur 9 Sudeste 0 -- -- 85
2021-02-26 22:00:00 12.8 2 Sur 12 Sudeste 0 -- -- 81
2021-02-26 21:00:00 12.5 5 Sur 12 Sudeste 0 -- -- 84
2021-02-26 20:00:00 13.2 8 Sudeste 15 Sudeste 0 -- -- 84
2021-02-26 19:00:00 13.3 6 Sur 17 Sudeste 0 -- -- 83
2021-02-26 18:00:00 14.1 10 Sudeste 21 Este 0 -- -- 79
2021-02-26 17:00:00 15.6 10 Sudeste 23 Sudeste 0 -- -- 71
2021-02-26 16:00:00 16.2 12 Sudeste 25 Este 0 -- -- 68
2021-02-26 15:00:00 16.5 14 Sudeste 23 Sudeste 0 -- -- 65
2021-02-26 14:00:00 16.5 16 Sudeste 27 Este 0 -- -- 65
2021-02-26 13:00:00 16.6 14 Este 23 Sudeste 0 -- -- 65
2021-02-26 12:00:00 16.6 13 Sudeste 26 Sudeste 0 -- -- 61
2021-02-26 11:00:00 16.2 11 Sudoeste 24 Sudoeste 0 -- -- 67
2021-02-26 10:00:00 15 16 Sudoeste 29 Sudoeste 0 -- -- 70
2021-02-26 09:00:00 14 2 Sudeste 6 Sur 0 -- -- 64
2021-02-26 08:00:00 12.4 3 Sur 7 Sudoeste 0 -- -- 66
2021-02-26 07:00:00 13 3 Sudeste 14 Sur 0 -- -- 64
2021-02-26 06:00:00 14.8 6 Sudoeste 15 Sudoeste 0 -- -- 54
2021-02-26 05:00:00 14.7 4 Sur 9 Sur 0 -- -- 49
2021-02-26 04:00:00 14.5 6 Sur 9 Sudeste 0 -- -- 49
2021-02-26 03:00:00 13.7 5 Sur 9 Sudeste 0 -- -- 55
2021-02-26 02:00:00 13.1 3 Sur 9 Sudeste 0 -- -- 62
2021-02-26 01:00:00 12.5 5 Sur 10 Sudoeste 0 -- -- 77
2021-02-26 00:00:00 12.4 3 Sudeste 8 Sudeste 0 -- -- 81
2021-02-25 23:00:00 12.3 4 Sur 9 Sur 0 -- -- 87
2021-02-25 22:00:00 12.3 4 Sur 11 Sudeste 0 -- -- 89
2021-02-25 21:00:00 12.7 7 Sur 15 Sudeste 0 -- -- 89
2021-02-25 20:00:00 13.3 12 Sudeste 24 Este 0 -- -- 88
2021-02-25 19:00:00 14 16 Sudeste 27 Sudeste 0 -- -- 83
2021-02-25 18:00:00 14.3 10 Sudeste 24 Sudeste 0 -- -- 85
2021-02-25 17:00:00 15.1 12 Este 20 Sudeste 0 -- -- 79
2021-02-25 16:00:00 15.2 11 Este 24 Este 0 -- -- 78
2021-02-25 15:00:00 15.8 16 Este 28 Este 0 -- -- 76
2021-02-25 14:00:00 16.3 14 Este 25 Nordeste 0 -- -- 73
2021-02-25 13:00:00 16.3 13 Este 24 Sudeste 0 -- -- 71
2021-02-25 12:00:00 16.2 15 Este 23 Sudeste 0 -- -- 67
2021-02-25 11:00:00 16 10 Este 19 Sudeste 0 -- -- 63
2021-02-25 10:00:00 15.3 5 Este 12 Sudeste 0 -- -- 63
2021-02-25 09:00:00 13.6 6 Sudeste 17 Sudeste 0 -- -- 66
2021-02-25 08:00:00 13.1 10 Sudeste 20 Sudeste 0 -- -- 65
2021-02-25 07:00:00 13.4 8 Sudeste 15 Sudeste 0 -- -- 58
2021-02-25 06:00:00 12.3 3 Oeste 7 Oeste 0 -- -- 62
2021-02-25 05:00:00 11.9 2 Sudeste 13 Sudeste 0 -- -- 66
2021-02-25 04:00:00 11.8 4 Nordeste 15 Sudeste 0 -- -- 69
2021-02-25 03:00:00 11.8 5 Sudeste 10 Sudeste 0 -- -- 72
2021-02-25 02:00:00 11.5 3 Sur 17 Sudeste 0 -- -- 79
2021-02-25 01:00:00 11.3 6 Sudeste 23 Sudeste 0 -- -- 84
2021-02-25 00:00:00 11.8 15 Este 28 Sudeste 0 -- -- 86
2021-02-24 23:00:00 12 15 Sudeste 27 Sudeste 0 -- -- 85
2021-02-24 22:00:00 12.4 11 Sudeste 21 Este 0 -- -- 86
2021-02-24 21:00:00 12 7 Sudeste 12 Sudeste 0 -- -- 88
2021-02-24 20:00:00 12.1 0 Calma 9 Este 0 -- -- 87
2021-02-24 19:00:00 13.1 7 Este 22 Este 0 -- -- 87
2021-02-24 18:00:00 13.6 12 Este 23 Este 0 -- -- 84
2021-02-24 17:00:00 13.9 14 Este 28 Este 0 -- -- 81
2021-02-24 16:00:00 13.8 18 Este 36 Este 0 -- -- 85
2021-02-24 15:00:00 14.3 21 Este 33 Este 0 -- -- 83
2021-02-24 14:00:00 15.9 20 Este 33 Este 0 -- -- 75
2021-02-24 13:00:00 16.3 19 Este 32 Este 0 -- -- 73
2021-02-24 12:00:00 16 19 Este 32 Este 0 -- -- 71
2021-02-24 11:00:00 15.9 24 Este 36 Este 0 -- -- 63
2021-02-24 10:00:00 14.5 10 Este 25 Sudeste 0 -- -- 63
2021-02-24 09:00:00 12.9 3 Este 13 Nordeste 0 -- -- 62
2021-02-24 08:00:00 11.5 3 Nordeste 15 Este 0 -- -- 69
2021-02-24 07:00:00 12.1 7 Este 22 Sudeste 0 -- -- 66
2021-02-24 06:00:00 11.8 6 Sudeste 12 Sudeste 0 -- -- 66
2021-02-24 05:00:00 12.2 5 Sudeste 12 Sur 0 -- -- 67
2021-02-24 04:00:00 11.9 7 Sudeste 18 Sudeste 0 -- -- 74
2021-02-24 03:00:00 11.4 6 Sudeste 15 Sudeste 0 -- -- 73
2021-02-24 02:00:00 11.6 3 Sudeste 24 Sudeste 0 -- -- 71
2021-02-24 01:00:00 12 13 Sudeste 26 Sudeste 0 -- -- 74
2021-02-24 00:00:00 12.1 14 Sudeste 23 Sudeste 0 -- -- 74
2021-02-23 23:00:00 11.7 5 Sudoeste 18 Sudeste 0 -- -- 72
2021-02-23 22:00:00 12.1 7 Este 14 Este 0 -- -- 71
2021-02-23 21:00:00 11.9 4 Sudeste 9 Este 0 -- -- 76
2021-02-23 20:00:00 12 5 Sudeste 9 Este 0 -- -- 75
2021-02-23 19:00:00 12.8 6 Este 14 Este 0 -- -- 70
2021-02-23 18:00:00 13.5 6 Este 14 Sudeste 0 -- -- 70
2021-02-23 17:00:00 14.2 4 Nordeste 16 Este 0 -- -- 71
2021-02-23 16:00:00 14.9 11 Sudeste 23 Sudeste 0 -- -- 67
2021-02-23 15:00:00 15.4 15 Este 26 Este 0 -- -- 65
2021-02-23 14:00:00 15.8 13 Este 23 Este 0 -- -- 59
2021-02-23 13:00:00 15.7 10 Este 20 Este 0 -- -- 53
2021-02-23 12:00:00 15.8 13 Este 19 Este 0 -- -- 49
2021-02-23 11:00:00 15.6 8 Este 16 Sudeste 0 -- -- 51
2021-02-23 10:00:00 16 6 Este 9 Este 0 -- -- 39
2021-02-23 09:00:00 14.3 0 Calma 14 Oeste 0 -- -- 40
2021-02-23 08:00:00 10.7 9 Oeste 13 Noroeste 0 -- -- 52
2021-02-23 07:00:00 10.5 3 Oeste 10 Sudoeste 0 -- -- 56
2021-02-23 06:00:00 11.4 6 Oeste 12 Oeste 0 -- -- 45
2021-02-23 05:00:00 11.2 6 Oeste 17 Oeste 0 -- -- 43
2021-02-23 04:00:00 11.3 8 Oeste 18 Oeste 0 -- -- 40
2021-02-23 03:00:00 11.3 7 Oeste 17 Oeste 0 -- -- 40
2021-02-23 02:00:00 11.7 4 Oeste 13 Noroeste 0 -- -- 38
2021-02-23 01:00:00 12.1 3 Sur 11 Sur 0 -- -- 36
2021-02-23 00:00:00 12.6 5 Oeste 15 Oeste 0 -- -- 33
2021-02-22 23:00:00 12.5 8 Oeste 17 Sudoeste 0 -- -- 35
2021-02-22 22:00:00 12.7 14 Oeste 20 Oeste 0 -- -- 35
2021-02-22 21:00:00 12.2 3 Sudoeste 8 Sudeste 0 -- -- 39
2021-02-22 20:00:00 13.4 4 Oeste 36 Oeste 0 -- -- 32
2021-02-22 19:00:00 14.3 26 Oeste 52 Oeste 0 -- -- 32
2021-02-22 18:00:00 14.5 34 Oeste 67 Noroeste 0 -- -- 34
2021-02-22 17:00:00 15.6 37 Oeste 64 Oeste 0 -- -- 33
2021-02-22 16:00:00 16 35 Oeste 62 Oeste 0 -- -- 31
2021-02-22 15:00:00 15.6 33 Oeste 58 Oeste 0 -- -- 37
2021-02-22 14:00:00 14.3 33 Oeste 58 Oeste 0 -- -- 52
2021-02-22 13:00:00 13.8 40 Oeste 60 Oeste 0 -- -- 53
2021-02-22 12:00:00 13.8 31 Oeste 67 Oeste 0 -- -- 38
2021-02-22 11:00:00 12.9 34 Oeste 62 Oeste 0 -- -- 40
2021-02-22 10:00:00 12.3 25 Oeste 52 Oeste 0 -- -- 38
2021-02-22 09:00:00 11.2 27 Oeste 56 Oeste 0 -- -- 43
2021-02-22 08:00:00 10.4 37 Oeste 63 Oeste 0 -- -- 42
2021-02-22 07:00:00 10.5 37 Oeste 58 Noroeste 0 -- -- 52
2021-02-22 06:00:00 10.8 33 Oeste 50 Oeste 0 -- -- 53
2021-02-22 05:00:00 10.8 27 Oeste 51 Oeste 0 -- -- 57
2021-02-22 04:00:00 10.8 21 Oeste 46 Oeste 0 -- -- 58
2021-02-22 03:00:00 10.8 24 Oeste 52 Noroeste 0 -- -- 62
2021-02-22 02:00:00 11 18 Oeste 31 Oeste 0 -- -- 59
2021-02-22 01:00:00 11 17 Oeste 55 Oeste 0 -- -- 62
2021-02-22 00:00:00 10.7 18 Oeste 37 Oeste 0 -- -- 63
2021-02-21 23:00:00 10.6 21 Oeste 55 Oeste 0 -- -- 66
2021-02-21 22:00:00 11 35 Noroeste 56 Noroeste 0 -- -- 64
2021-02-21 21:00:00 10.8 25 Noroeste 38 Oeste 0 -- -- 69
2021-02-21 20:00:00 10.8 24 Oeste 40 Oeste 0 -- -- 88
2021-02-21 19:00:00 11 15 Oeste 33 Oeste 0.2 -- -- 92
2021-02-21 18:00:00 11.1 12 Oeste 22 Oeste 0.2 -- -- 91
2021-02-21 17:00:00 10.7 3 Noroeste 14 Oeste 0.6 -- -- 94
2021-02-21 16:00:00 8.8 15 Noroeste 44 Oeste 11.6 -- -- 91
2021-02-21 15:00:00 14.7 4 Nordeste 17 Oeste 0 -- -- 80
2021-02-21 14:00:00 14.5 9 Oeste 22 Oeste 0.2 -- -- 80
2021-02-21 13:00:00 15.7 9 Oeste 33 Oeste 0 -- -- 62
2021-02-21 12:00:00 15.8 17 Oeste 41 Oeste 0 -- -- 57
2021-02-21 11:00:00 15.2 23 Oeste 39 Oeste 0 -- -- 58
2021-02-21 10:00:00 15.5 5 Sudeste 32 Oeste 0 -- -- 55
2021-02-21 09:00:00 15.2 21 Oeste 36 Oeste 0 -- -- 53
2021-02-21 08:00:00 15.2 17 Sudoeste 25 Sudoeste 0 -- -- 53
2021-02-21 07:00:00 14.8 14 Oeste 29 Oeste 0 -- -- 58
2021-02-21 06:00:00 13.8 24 Oeste 41 Oeste 0 -- -- 68
2021-02-21 05:00:00 14.8 5 Noroeste 10 Noroeste 0 -- -- 45
2021-02-21 04:00:00 17.1 6 Oeste 10 Oeste 0 -- -- 30
2021-02-21 03:00:00 14.9 4 Oeste 12 Sudoeste 0 -- -- 40
2021-02-21 02:00:00 13.6 0 Calma 8 Sur 0 -- -- 57
2021-02-21 01:00:00 13.4 3 Sudoeste 13 Oeste 0 -- -- 68
2021-02-21 00:00:00 12.1 6 Oeste 11 Oeste 0 -- -- 88
2021-02-20 23:00:00 12.3 5 Sur 8 Sur 0 -- -- 90
2021-02-20 22:00:00 12.6 4 Sur 9 Sudeste 0 -- -- 87
2021-02-20 21:00:00 11.7 0 Calma 6 Oeste 0 -- -- 90
2021-02-20 20:00:00 12.1 2 Sur 5 Sur 0 -- -- 90
2021-02-20 19:00:00 12.9 2 Oeste 8 Oeste 0 -- -- 88
2021-02-20 18:00:00 13.6 4 Este 14 Sudeste 0 -- -- 88
2021-02-20 17:00:00 13.6 9 Sudeste 14 Este 0 -- -- 87
2021-02-20 16:00:00 13.9 10 Este 18 Sudeste 0 -- -- 83
2021-02-20 15:00:00 13.9 12 Este 18 Este 0 -- -- 85
2021-02-20 14:00:00 13.9 11 Este 18 Este 0 -- -- 83
2021-02-20 13:00:00 15 12 Este 22 Este 0 -- -- 73
2021-02-20 12:00:00 16 7 Este 13 Sudeste 0 -- -- 58
2021-02-20 11:00:00 17 7 Este 12 Este 0 -- -- 46
2021-02-20 10:00:00 15.7 4 Sudeste 10 Sudeste 0 -- -- 55
2021-02-20 09:00:00 13.4 3 Noroeste 15 Oeste 0 -- -- 60
2021-02-20 08:00:00 10.3 5 Oeste 9 Oeste 0 -- -- 88
2021-02-20 07:00:00 10.6 4 Sudoeste 8 Oeste 0 -- -- 87
2021-02-20 06:00:00 10.8 7 Sur 11 Sur 0 -- -- 89
2021-02-20 05:00:00 11 2 Sur 9 Sur 0 -- -- 83
2021-02-20 04:00:00 11.4 4 Sudoeste 9 Noroeste 0 -- -- 69
2021-02-20 03:00:00 10.9 4 Oeste 6 Noroeste 0 -- -- 78
2021-02-20 02:00:00 12.2 3 Sudeste 13 Oeste 0 -- -- 72
2021-02-20 01:00:00 11.2 7 Noroeste 12 Oeste 0 -- -- 89
2021-02-20 00:00:00 12.1 4 Noroeste 8 Oeste 0 -- -- 91
2021-02-19 23:00:00 11.6 4 Oeste 6 Oeste 0 -- -- 91
2021-02-19 22:00:00 11.4 2 Sudeste 6 Sur 0 -- -- 77
2021-02-19 21:00:00 11.3 0 Calma 5 Sur 0 -- -- 80
2021-02-19 20:00:00 12 0 Calma 6 Noroeste 0 -- -- 82
2021-02-19 19:00:00 12.7 3 Noroeste 5 Noroeste 0 -- -- 78
2021-02-19 18:00:00 14.2 2 Sudeste 6 Sur 0 -- -- 73
2021-02-19 17:00:00 16.5 4 Sudeste 10 Sudeste 0 -- -- 69
2021-02-19 16:00:00 17 6 Sudeste 13 Este 0 -- -- 60
2021-02-19 15:00:00 17 9 Sudeste 15 Sudeste 0 -- -- 63
2021-02-19 14:00:00 17.5 5 Este 12 Este 0 -- -- 61
2021-02-19 13:00:00 18 6 Este 11 Este 0 -- -- 58
2021-02-19 12:00:00 17.2 5 Este 10 Sudeste 0 -- -- 70
2021-02-19 11:00:00 15.9 4 Este 10 Este 0 -- -- 70
2021-02-19 10:00:00 15 5 Este 8 Este 0 -- -- 74
2021-02-19 09:00:00 13.4 4 Sudeste 12 Oeste 0 -- -- 71
2021-02-19 08:00:00 10.4 8 Oeste 10 Oeste 0 -- -- 83
2021-02-19 07:00:00 10.1 2 Sudeste 3 Sudeste 0 -- -- 82
2021-02-19 06:00:00 10.5 3 Sudeste 6 Oeste 0 -- -- 80
2021-02-19 05:00:00 10.4 3 Oeste 4 Oeste 0 -- -- 83
2021-02-19 04:00:00 10.6 4 Oeste 8 Oeste 0 -- -- 85
2021-02-19 03:00:00 11 3 Oeste 7 Oeste 0 -- -- 84
2021-02-19 02:00:00 10.6 0 Calma 4 Sur 0 -- -- 87
2021-02-19 01:00:00 10.9 0 Calma 8 Oeste 0 -- -- 87
2021-02-19 00:00:00 10.7 3 Sur 5 Sur 0 -- -- 91
2021-02-18 23:00:00 10.8 2 Sur 4 Sur 0 -- -- 86
2021-02-18 22:00:00 11.4 0 Calma 8 Sudeste 0 -- -- 87
2021-02-18 21:00:00 12.1 5 Oeste 8 Oeste 0 -- -- 83
2021-02-18 20:00:00 12.1 0 Calma 11 Sur 0 -- -- 83
2021-02-18 19:00:00 13 5 Sur 9 Sur 0 -- -- 82
2021-02-18 18:00:00 14.3 6 Sudeste 10 Sudeste 0 -- -- 76
2021-02-18 17:00:00 15.3 7 Sudeste 11 Sudeste 0 -- -- 73
2021-02-18 16:00:00 16.9 6 Este 13 Este 0 -- -- 65
2021-02-18 15:00:00 17 7 Nordeste 17 Sudeste 0 -- -- 65
2021-02-18 14:00:00 17.6 8 Este 17 Sudeste 0 -- -- 61
2021-02-18 13:00:00 17.5 10 Este 19 Sudeste 0 -- -- 62
2021-02-18 12:00:00 16.3 6 Nordeste 12 Este 0 -- -- 64
2021-02-18 11:00:00 15.6 6 Este 10 Este 0 -- -- 64
2021-02-18 10:00:00 15.2 2 Este 5 Este 0 -- -- 61
2021-02-18 09:00:00 12.7 0 Calma 4 Sudeste 0 -- -- 68
2021-02-18 08:00:00 10.2 0 Calma 5 Oeste 0 -- -- 70
2021-02-18 07:00:00 10.3 3 Oeste 6 Oeste 0 -- -- 73
2021-02-18 06:00:00 9.9 2 Noroeste 8 Sudeste 0 -- -- 81
2021-02-18 05:00:00 10.4 0 Calma 6 Oeste 0 -- -- 75
2021-02-18 04:00:00 10.5 5 Oeste 7 Sur 0 -- -- 83
2021-02-18 03:00:00 10.7 5 Sur 10 Oeste 0 -- -- 75
2021-02-18 02:00:00 10.6 2 Sudoeste 6 Sur 0 -- -- 88
2021-02-18 01:00:00 10.6 4 Oeste 7 Sur 0 -- -- 78
2021-02-18 00:00:00 11.3 0 Calma 6 Sur 0 -- -- 76
2021-02-17 23:00:00 11.3 3 Sudeste 6 Sur 0 -- -- 76
2021-02-17 22:00:00 11.7 0 Calma 4 Sudeste 0 -- -- 73
2021-02-17 21:00:00 12.2 0 Calma 4 Sudoeste 0 -- -- 75
2021-02-17 20:00:00 12.8 2 Sur 9 Sur 0 -- -- 67
2021-02-17 19:00:00 13.7 5 Sur 9 Sur 0 -- -- 57
2021-02-17 18:00:00 14.4 0 Calma 4 Sudoeste 0 -- -- 71
2021-02-17 17:00:00 16.9 0 Calma 9 Este 0 -- -- 66
2021-02-17 16:00:00 16.8 5 Sudeste 9 Este 0 -- -- 66
2021-02-17 15:00:00 16.1 7 Este 11 Este 0 -- -- 68
2021-02-17 14:00:00 16 6 Este 11 Sudeste 0 -- -- 67
2021-02-17 13:00:00 15.9 5 Este 12 Sudeste 0 -- -- 66
2021-02-17 12:00:00 15.5 7 Este 13 Sudeste 0 -- -- 67
2021-02-17 11:00:00 15.3 8 Este 12 Sudeste 0 -- -- 69
2021-02-17 10:00:00 14.7 2 Este 4 Este 0 -- -- 69
2021-02-17 09:00:00 13.6 3 Este 6 Sudeste 0 -- -- 71
2021-02-17 08:00:00 10.9 0 Calma 3 Sur 0 -- -- 66
2021-02-17 07:00:00 10.9 0 Calma 4 Sur 0 -- -- 68
2021-02-17 06:00:00 10.6 0 Calma 6 Oeste 0 -- -- 76
2021-02-17 05:00:00 9.7 3 Oeste 5 Oeste 0 -- -- 82
2021-02-17 04:00:00 9.4 0 Calma 4 Sudeste 0 -- -- 86
2021-02-17 03:00:00 9.6 2 Sur 4 Sudeste 0 -- -- 85
2021-02-17 02:00:00 9.8 0 Calma 3 Noroeste 0 -- -- 84
2021-02-17 01:00:00 10.1 2 Sudeste 6 Noroeste 0 -- -- 85
2021-02-17 00:00:00 9.9 0 Calma 3 Sudoeste 0 -- -- 87
2021-02-16 23:00:00 9.9 3 Oeste 4 Oeste 0 -- -- 88
2021-02-16 22:00:00 9.9 3 Sudoeste 6 Oeste 0 -- -- 87
2021-02-16 21:00:00 10 5 Oeste 6 Oeste 0 -- -- 87
2021-02-16 20:00:00 10.3 3 Oeste 6 Oeste 0 -- -- 85
2021-02-16 19:00:00 11.1 4 Oeste 6 Oeste 0 -- -- 83
2021-02-16 18:00:00 12.7 0 Calma 6 Sudeste 0 -- -- 77
2021-02-16 17:00:00 15.1 2 Sudeste 17 Sudeste 0 -- -- 68
2021-02-16 16:00:00 15.7 4 Este 17 Sur 0 -- -- 66
2021-02-16 15:00:00 15.8 7 Sur 21 Sudeste 0 -- -- 65
2021-02-16 14:00:00 14.3 12 Sudeste 22 Sudeste 0 -- -- 69
2021-02-16 13:00:00 13.9 13 Sudeste 21 Sudeste 0 -- -- 65
2021-02-16 12:00:00 13.7 9 Sudeste 15 Sudeste 0 -- -- 63
2021-02-16 11:00:00 14.1 7 Este 13 Este 0 -- -- 60
2021-02-16 10:00:00 13.8 2 Sudeste 7 Nordeste 0 -- -- 59
2021-02-16 09:00:00 11.1 0 Calma 8 Sur 0 -- -- 68
2021-02-16 08:00:00 8.6 3 Sudeste 10 Sur 0 -- -- 77
2021-02-16 07:00:00 8.6 0 Calma 5 Sur 0 -- -- 76
2021-02-16 06:00:00 8.5 4 Sur 5 Sur 0 -- -- 77
2021-02-16 05:00:00 8.9 3 Sur 9 Sur 0 -- -- 75
2021-02-16 04:00:00 9.3 6 Sur 8 Sur 0 -- -- 72
2021-02-16 03:00:00 9.6 0 Calma 9 Sudeste 0 -- -- 70
2021-02-16 02:00:00 10.3 4 Sudeste 8 Este 0 -- -- 68
2021-02-16 01:00:00 10.1 3 Sur 6 Sur 0 -- -- 71
2021-02-16 00:00:00 10.6 2 Sudeste 9 Sudeste 0 -- -- 71
2021-02-15 23:00:00 11.4 5 Sudeste 12 Sudeste 0 -- -- 69
2021-02-15 22:00:00 11.2 3 Oeste 9 Nordeste 0 -- -- 70
2021-02-15 21:00:00 11.1 2 Sudoeste 25 Este 0 -- -- 72
2021-02-15 20:00:00 12.1 17 Este 30 Sudeste 0 -- -- 75
2021-02-15 19:00:00 12.2 18 Este 35 Este 0 -- -- 79
2021-02-15 18:00:00 12.7 19 Este 35 Este 0 -- -- 70
2021-02-15 17:00:00 13.4 23 Este 36 Sudeste 0 -- -- 67
2021-02-15 16:00:00 14.4 21 Este 32 Sudeste 0 -- -- 68
2021-02-15 15:00:00 14.7 23 Este 35 Sudeste 0 -- -- 67
2021-02-15 14:00:00 15 23 Este 42 Este 0 -- -- 66
2021-02-15 13:00:00 15.1 23 Este 36 Este 0 -- -- 65
2021-02-15 12:00:00 14.8 23 Este 33 Este 0 -- -- 66
2021-02-15 11:00:00 14.5 14 Este 27 Sudeste 0 -- -- 67
2021-02-15 10:00:00 13.9 8 Este 19 Sudeste 0 -- -- 63
2021-02-15 09:00:00 12.3 9 Sudeste 14 Sudeste 0 -- -- 69
2021-02-15 08:00:00 10.4 0 Calma 15 Sur 0 -- -- 73
2021-02-15 07:00:00 10.3 2 Sudeste 8 Sudeste 0 -- -- 74
2021-02-15 06:00:00 10.6 5 Sudeste 10 Este 0 -- -- 73
2021-02-15 05:00:00 11.3 2 Sudeste 13 Sudeste 0 -- -- 67
2021-02-15 04:00:00 11.8 5 Sudeste 13 Este 0 -- -- 63
2021-02-15 03:00:00 11.2 0 Calma 8 Oeste 0 -- -- 69
2021-02-15 02:00:00 10.7 0 Calma 17 Sudeste 0 -- -- 78
2021-02-15 01:00:00 10.8 3 Sur 9 Sur 0 -- -- 81
2021-02-15 00:00:00 11.4 7 Sur 11 Sudeste 0 -- -- 78
2021-02-14 23:00:00 12.1 8 Sudeste 22 Este 0 -- -- 79
2021-02-14 22:00:00 13.2 12 Sudeste 24 Sudeste 0 -- -- 74
2021-02-14 21:00:00 13.3 13 Sudeste 26 Este 0 -- -- 71
2021-02-14 20:00:00 13.5 6 Sudeste 17 Este 0 -- -- 75
2021-02-14 19:00:00 13.2 6 Sudeste 14 Sudeste 0 -- -- 82
2021-02-14 18:00:00 13.4 6 Sudeste 21 Sudeste 0 -- -- 77
2021-02-14 17:00:00 14 9 Este 22 Este 0 -- -- 83
2021-02-14 16:00:00 14.8 13 Sudeste 22 Sudeste 0 -- -- 80
2021-02-14 15:00:00 15.4 11 Este 21 Este 0 -- -- 75
2021-02-14 14:00:00 15.9 10 Este 19 Este 0 -- -- 64
2021-02-14 13:00:00 16.3 7 Este 22 Este 0 -- -- 57
2021-02-14 12:00:00 16.3 7 Este 21 Este 0 -- -- 57
2021-02-14 11:00:00 16.2 9 Este 18 Nordeste 0 -- -- 56
2021-02-14 10:00:00 15.7 0 Calma 5 Este 0 -- -- 60
2021-02-14 09:00:00 12.6 3 Oeste 6 Sudeste 0 -- -- 68
2021-02-14 08:00:00 10.3 5 Sur 8 Sur 0 -- -- 86
2021-02-14 07:00:00 10.4 4 Sur 9 Sur 0 -- -- 83
2021-02-14 06:00:00 11.3 4 Sur 9 Sudeste 0 -- -- 77
2021-02-14 05:00:00 11.8 2 Sudeste 7 Sudeste 0 -- -- 68
2021-02-14 04:00:00 12.4 0 Calma 9 Sur 0 -- -- 61
2021-02-14 03:00:00 13.4 2 Sudeste 9 Oeste 0 -- -- 57
2021-02-14 02:00:00 13.6 5 Oeste 8 Oeste 0 -- -- 53
2021-02-14 01:00:00 13.1 0 Calma 6 Oeste 0 -- -- 60
2021-02-14 00:00:00 12.9 2 Oeste 4 Oeste 0 -- -- 62
2021-02-13 23:00:00 13.3 0 Calma 6 Oeste 0 -- -- 62
2021-02-13 22:00:00 13.2 0 Calma 9 Sur 0 -- -- 60
2021-02-13 21:00:00 13.2 3 Sudoeste 6 Sudoeste 0 -- -- 58
2021-02-13 20:00:00 13.4 3 Oeste 5 Noroeste 0 -- -- 63
2021-02-13 19:00:00 13.8 2 Oeste 7 Oeste 0 -- -- 67
2021-02-13 18:00:00 14.8 3 Oeste 5 Noroeste 0 -- -- 65
2021-02-13 17:00:00 17.4 3 Este 9 Este 0 -- -- 56
2021-02-13 16:00:00 17.1 8 Sudeste 12 Sudeste 0 -- -- 51
2021-02-13 15:00:00 18.2 7 Sudeste 14 Sudeste 0 -- -- 46
2021-02-13 14:00:00 18.7 11 Sudeste 18 Sudeste 0 -- -- 41
2021-02-13 13:00:00 18.8 9 Este 14 Este 0 -- -- 43
2021-02-13 08:00:00 -- -- -- -- -- -- -- -- --
2021-02-13 07:00:00 -- -- -- -- -- -- -- -- --
2021-02-13 06:00:00 -- -- -- -- -- -- -- -- --
2021-02-13 05:00:00 15 6 Oeste 12 Oeste 0 -- -- 44
2021-02-13 04:00:00 14.4 6 Noroeste 13 Noroeste 0 -- -- 49
2021-02-13 03:00:00 14 2 Oeste 10 Sur 0 -- -- 52
2021-02-13 02:00:00 15.5 7 Oeste 17 Noroeste 0 -- -- 44
2021-02-13 01:00:00 15.2 6 Noroeste 10 Oeste 0 -- -- 46
2021-02-13 00:00:00 15.8 6 Sur 13 Oeste 0 -- -- 48
2021-02-12 23:00:00 16.9 4 Oeste 17 Sudoeste 0 -- -- 41
2021-02-12 22:00:00 17.4 10 Oeste 21 Oeste 0 -- -- 39
2021-02-12 21:00:00 17.2 12 Oeste 19 Oeste 0 -- -- 38
2021-02-12 20:00:00 17.7 8 Oeste 37 Oeste 0 -- -- 37
2021-02-12 19:00:00 18.3 24 Oeste 54 Oeste 0 -- -- 38
2021-02-12 18:00:00 19.5 29 Oeste 60 Oeste 0 -- -- 29
2021-02-12 17:00:00 20.5 39 Oeste 59 Oeste 0 -- -- 24
2021-02-12 16:00:00 21.1 27 Oeste 69 Oeste 0 -- -- 35
2021-02-12 15:00:00 21.1 35 Oeste 67 Oeste 0 -- -- 39
2021-02-12 14:00:00 20.6 32 Oeste 68 Noroeste 0 -- -- 42
2021-02-12 13:00:00 20.1 23 Oeste 63 Oeste 0 -- -- 47
2021-02-12 12:00:00 20.1 32 Noroeste 60 Noroeste 0 -- -- 47
2021-02-12 11:00:00 19.8 34 Oeste 59 Oeste 0 -- -- 48
2021-02-12 10:00:00 19.2 29 Noroeste 58 Oeste 0 -- -- 46
2021-02-12 09:00:00 17.2 42 Oeste 59 Oeste 0 -- -- 54
2021-02-12 08:00:00 18.1 23 Noroeste 36 Noroeste 0 -- -- 44
2021-02-12 07:00:00 14.1 6 Nordeste 32 Noroeste 0 -- -- 79
2021-02-12 06:00:00 13.5 4 Este 21 Noroeste 0 -- -- 77
2021-02-12 05:00:00 12.5 2 Este 11 Oeste 0 -- -- 89
2021-02-12 04:00:00 13 0 Calma 7 Sudeste 0 -- -- 82
2021-02-12 03:00:00 13.7 0 Calma 4 Oeste 0 -- -- 79
2021-02-12 02:00:00 14.6 3 Oeste 6 Sudeste 0 -- -- 77
2021-02-12 01:00:00 14.1 0 Calma 5 Sur 0 -- -- 79
2021-02-12 00:00:00 14.3 3 Sudeste 5 Sur 0 -- -- 79
2021-02-11 23:00:00 14.3 3 Noroeste 6 Sudoeste 0 -- -- 80
2021-02-11 22:00:00 14.8 3 Oeste 7 Sur 0 -- -- 76
2021-02-11 21:00:00 15 2 Sudeste 6 Oeste 0 -- -- 76
2021-02-11 20:00:00 15.4 0 Calma 7 Oeste 0 -- -- 75
2021-02-11 19:00:00 15.8 7 Oeste 10 Oeste 0 -- -- 76
2021-02-11 18:00:00 17 2 Sur 9 Sudeste 0 -- -- 71
2021-02-11 17:00:00 19 3 Sur 10 Sudeste 0 -- -- 65
2021-02-11 16:00:00 18.8 7 Este 13 Sudeste 0 -- -- 62
2021-02-11 15:00:00 20.3 4 Este 11 Este 0 -- -- 59
2021-02-11 14:00:00 18.8 5 Este 13 Sudeste 0 -- -- 66
2021-02-11 13:00:00 19.7 8 Sudeste 13 Sudeste 0 -- -- 61
2021-02-11 12:00:00 19.4 6 Sudeste 13 Sudeste 0 -- -- 60
2021-02-11 11:00:00 19.1 5 Sudeste 10 Sudeste 0 -- -- 60
2021-02-11 10:00:00 18.4 2 Noroeste 7 Este 0 -- -- 63
2021-02-11 09:00:00 16 0 Calma 6 Oeste 0 -- -- 71
2021-02-11 08:00:00 14.5 3 Sur 6 Sudeste 0 -- -- 72
2021-02-11 07:00:00 15.1 3 Sudeste 9 Noroeste 0 -- -- 69
2021-02-11 06:00:00 13.7 3 Oeste 14 Sur 0 -- -- 76
2021-02-11 05:00:00 15.9 3 Oeste 13 Oeste 0 -- -- 67
2021-02-11 04:00:00 16.6 8 Oeste 20 Oeste 0 -- -- 64
2021-02-11 03:00:00 15.4 9 Oeste 14 Oeste 0 -- -- 71
2021-02-11 02:00:00 15.6 3 Sudoeste 42 Noroeste 0 -- -- 73
2021-02-11 01:00:00 18.3 33 Oeste 55 Oeste 0 -- -- 60
2021-02-11 00:00:00 17.7 38 Oeste 59 Oeste 0 -- -- 64
2021-02-10 23:00:00 17.4 40 Oeste 65 Oeste 0 -- -- 67
2021-02-10 22:00:00 17.2 44 Noroeste 69 Noroeste 0 -- -- 69
2021-02-10 21:00:00 16.4 36 Oeste 51 Oeste 0 -- -- 75
2021-02-10 20:00:00 14.8 31 Oeste 47 Oeste 0 -- -- 85
2021-02-10 19:00:00 14.5 30 Oeste 58 Oeste 0 -- -- 89
2021-02-10 18:00:00 14.3 35 Oeste 53 Oeste 0 -- -- 91
2021-02-10 17:00:00 14.8 27 Oeste 53 Oeste 0 -- -- 89
2021-02-10 16:00:00 14.5 30 Oeste 64 Oeste 0 -- -- 91
2021-02-10 15:00:00 14.8 36 Oeste 71 Noroeste 0 -- -- 88
2021-02-10 14:00:00 14.5 42 Oeste 71 Oeste 0 -- -- 88
2021-02-10 13:00:00 14.8 33 Oeste 62 Oeste 0 -- -- 84
2021-02-10 12:00:00 14.8 38 Oeste 71 Noroeste 0 -- -- 81
2021-02-10 11:00:00 15 37 Oeste 67 Oeste 0 -- -- 76
2021-02-10 10:00:00 14.1 40 Oeste 58 Oeste 0 -- -- 80
2021-02-10 09:00:00 13.5 34 Oeste 58 Oeste 0 -- -- 80
2021-02-10 08:00:00 13.6 36 Oeste 59 Oeste 0 -- -- 76
2021-02-10 07:00:00 13.8 37 Oeste 69 Oeste 0 -- -- 73
2021-02-10 06:00:00 14 36 Oeste 56 Oeste 0 -- -- 71
2021-02-10 05:00:00 14.4 28 Oeste 49 Oeste 0 -- -- 68
2021-02-10 04:00:00 13.4 34 Oeste 62 Oeste 0 -- -- 78
2021-02-10 03:00:00 13 38 Oeste 58 Oeste 0 -- -- 87
2021-02-10 02:00:00 13.4 31 Oeste 49 Oeste 0 -- -- 83
2021-02-10 01:00:00 12.9 31 Oeste 52 Oeste 0 -- -- 92
2021-02-10 00:00:00 12.9 26 Oeste 53 Oeste 0 -- -- 93
2021-02-09 23:00:00 12.8 30 Oeste 47 Oeste 0 -- -- 93
2021-02-09 22:00:00 13 25 Oeste 61 Oeste 1.8 -- -- 92
2021-02-09 21:00:00 13.5 25 Oeste 54 Oeste 0.2 -- -- 89
2021-02-09 20:00:00 13.8 31 Oeste 57 Oeste 0 -- -- 86
2021-02-09 19:00:00 13.9 34 Oeste 57 Oeste 0 -- -- 88
2021-02-09 18:00:00 13.5 29 Oeste 54 Oeste 0 -- -- 90
2021-02-09 17:00:00 13.4 27 Oeste 53 Oeste 0.8 -- -- 92
2021-02-09 16:00:00 13.1 30 Oeste 51 Oeste 0.4 -- -- 91
2021-02-09 15:00:00 13 32 Oeste 51 Oeste 2 -- -- 89
2021-02-09 14:00:00 13.9 35 Oeste 55 Oeste 0 -- -- 79
2021-02-09 13:00:00 14.2 34 Oeste 58 Oeste 0 -- -- 74
2021-02-09 12:00:00 13.8 20 Noroeste 44 Oeste 0 -- -- 76
2021-02-09 11:00:00 13.4 20 Oeste 33 Noroeste 0 -- -- 73
2021-02-09 10:00:00 13.7 22 Oeste 41 Oeste 0 -- -- 62
2021-02-09 09:00:00 12.7 20 Oeste 35 Noroeste 0 -- -- 69
2021-02-09 08:00:00 13.4 19 Noroeste 38 Oeste 0 -- -- 53
2021-02-09 07:00:00 13.2 19 Oeste 41 Oeste 0 -- -- 55
2021-02-09 06:00:00 13.4 27 Oeste 53 Noroeste 0 -- -- 54
2021-02-09 05:00:00 13.8 34 Noroeste 60 Noroeste 0 -- -- 52
2021-02-09 04:00:00 13.9 33 Noroeste 63 Noroeste 0 -- -- 52
2021-02-09 03:00:00 14.4 41 Noroeste 67 Noroeste 0 -- -- 52
2021-02-09 02:00:00 14.5 40 Noroeste 63 Oeste 0 -- -- 51
2021-02-09 01:00:00 14.6 37 Noroeste 68 Noroeste 0 -- -- 51
2021-02-09 00:00:00 14.4 40 Oeste 76 Noroeste 0 -- -- 53
2021-02-08 23:00:00 14.7 44 Noroeste 76 Noroeste 0 -- -- 55
2021-02-08 22:00:00 14.1 32 Oeste 55 Oeste 0 -- -- 57
2021-02-08 21:00:00 13.8 26 Oeste 46 Oeste 0 -- -- 60
2021-02-08 20:00:00 14.7 31 Noroeste 54 Noroeste 0 -- -- 53
2021-02-08 19:00:00 14 27 Oeste 50 Oeste 0 -- -- 59
2021-02-08 18:00:00 13.6 28 Oeste 47 Oeste 0 -- -- 71
2021-02-08 17:00:00 14.3 21 Oeste 44 Noroeste 0 -- -- 65
2021-02-08 16:00:00 14.9 21 Sudoeste 41 Oeste 0 -- -- 71
2021-02-08 15:00:00 15.3 25 Oeste 51 Oeste 0 -- -- 47
2021-02-08 14:00:00 15.2 23 Oeste 50 Noroeste 0 -- -- 53
2021-02-08 13:00:00 13.9 19 Oeste 48 Oeste 0 -- -- 59
2021-02-08 12:00:00 12.7 26 Oeste 44 Oeste 0 -- -- 66
2021-02-08 11:00:00 11.9 20 Oeste 37 Noroeste 0.6 -- -- 83
2021-02-08 10:00:00 11.9 19 Noroeste 50 Noroeste 9 -- -- 95
2021-02-08 09:00:00 11.9 21 Noroeste 45 Oeste 8.4 -- -- 91
2021-02-08 08:00:00 11.7 15 Noroeste 46 Oeste 6.2 -- -- 92
2021-02-08 07:00:00 11.5 25 Oeste 50 Oeste 3 -- -- 92
2021-02-08 06:00:00 11.1 24 Oeste 50 Oeste 0.8 -- -- 93
2021-02-08 05:00:00 10.3 21 Noroeste 46 Oeste 0.4 -- -- 88
2021-02-08 04:00:00 11.6 25 Oeste 42 Oeste 0 -- -- 75
2021-02-08 03:00:00 11.4 24 Oeste 40 Oeste 0 -- -- 71
2021-02-08 02:00:00 11.8 22 Oeste 40 Noroeste 0 -- -- 62
2021-02-08 01:00:00 11.9 26 Noroeste 57 Noroeste 0 -- -- 60
2021-02-08 00:00:00 11.8 40 Noroeste 75 Oeste 0 -- -- 57
2021-02-07 23:00:00 11.5 55 Oeste 78 Oeste 0 -- -- 55
2021-02-07 22:00:00 11.6 41 Oeste 72 Oeste 0 -- -- 51
2021-02-07 21:00:00 11.7 43 Oeste 76 Oeste 0 -- -- 47
2021-02-07 20:00:00 12.4 53 Noroeste 84 Noroeste 0 -- -- 50
2021-02-07 19:00:00 13 45 Oeste 73 Noroeste 0 -- -- 46
2021-02-07 18:00:00 13.9 51 Oeste 77 Oeste 0 -- -- 44
2021-02-07 17:00:00 14.8 46 Noroeste 83 Noroeste 0 -- -- 44
2021-02-07 16:00:00 15.1 46 Noroeste 78 Noroeste 0 -- -- 47
2021-02-07 15:00:00 14.8 55 Noroeste 74 Oeste 0 -- -- 52
2021-02-07 14:00:00 14.6 52 Noroeste 77 Oeste 0 -- -- 50
2021-02-07 13:00:00 15.1 36 Noroeste 59 Noroeste 0 -- -- 50
2021-02-07 12:00:00 15.1 12 Noroeste 46 Noroeste 0 -- -- 49
2021-02-07 11:00:00 13.6 21 Oeste 45 Oeste 0 -- -- 53
2021-02-07 10:00:00 12 19 Oeste 39 Oeste 0 -- -- 67
2021-02-07 09:00:00 10.8 8 Nordeste 43 Oeste 0 -- -- 72
2021-02-07 08:00:00 9.8 14 Oeste 42 Oeste 0 -- -- 82
2021-02-07 07:00:00 9.9 26 Oeste 42 Oeste 0 -- -- 85
2021-02-07 06:00:00 10.4 21 Oeste 42 Oeste 0 -- -- 84
2021-02-07 05:00:00 10.8 16 Oeste 44 Oeste 0 -- -- 85
2021-02-07 04:00:00 10.9 19 Oeste 32 Oeste 0 -- -- 83
2021-02-07 03:00:00 11.1 25 Oeste 39 Oeste 0 -- -- 83
2021-02-07 02:00:00 11.3 23 Oeste 37 Oeste 0 -- -- 81
2021-02-07 01:00:00 11.1 22 Oeste 38 Oeste 0 -- -- 86
2021-02-07 00:00:00 11.1 22 Oeste 35 Oeste 0 -- -- 83
2021-02-06 23:00:00 11.4 24 Oeste 37 Oeste 0 -- -- 83
2021-02-06 22:00:00 11.6 20 Oeste 39 Oeste 0 -- -- 83
2021-02-06 21:00:00 11.8 20 Oeste 38 Oeste 0 -- -- 81
2021-02-06 20:00:00 12 24 Oeste 40 Oeste 0 -- -- 80
2021-02-06 19:00:00 12.2 19 Oeste 46 Oeste 0 -- -- 84
2021-02-06 18:00:00 12.4 28 Oeste 51 Oeste 0 -- -- 79
2021-02-06 17:00:00 13.1 23 Oeste 47 Oeste 0 -- -- 77
2021-02-06 16:00:00 12.8 20 Oeste 43 Oeste 0 -- -- 78
2021-02-06 15:00:00 13.9 24 Oeste 48 Oeste 0 -- -- 71
2021-02-06 14:00:00 13.8 27 Oeste 46 Oeste 0 -- -- 72
2021-02-06 13:00:00 14.2 25 Oeste 45 Oeste 0 -- -- 71
2021-02-06 12:00:00 14.2 19 Oeste 35 Oeste 0 -- -- 71
2021-02-06 11:00:00 13.7 16 Oeste 27 Oeste 0 -- -- 70
2021-02-06 10:00:00 12.9 16 Oeste 28 Noroeste 0 -- -- 77
2021-02-06 09:00:00 11.7 5 Noroeste 29 Oeste 0 -- -- 85
2021-02-06 08:00:00 11.5 10 Oeste 20 Oeste 0 -- -- 85
2021-02-06 07:00:00 11.2 4 Oeste 21 Noroeste 0 -- -- 85
2021-02-06 06:00:00 11.2 6 Oeste 20 Oeste 0.2 -- -- 85
2021-02-06 05:00:00 11.2 11 Oeste 29 Noroeste 0.6 -- -- 84
2021-02-06 04:00:00 13.5 10 Oeste 18 Oeste 0 -- -- 62
2021-02-06 03:00:00 13.3 10 Oeste 22 Noroeste 0 -- -- 57
2021-02-06 02:00:00 13.6 12 Noroeste 32 Oeste 0 -- -- 56
2021-02-06 01:00:00 13.8 17 Noroeste 34 Noroeste 0 -- -- 56
2021-02-06 00:00:00 13.9 23 Noroeste 37 Noroeste 0 -- -- 56
2021-02-05 23:00:00 13.7 24 Noroeste 37 Noroeste 0 -- -- 62
2021-02-05 22:00:00 13.3 26 Noroeste 44 Noroeste 0 -- -- 74
2021-02-05 21:00:00 13.4 19 Oeste 30 Oeste 0.4 -- -- 80
2021-02-05 20:00:00 14.2 26 Oeste 39 Oeste 0 -- -- 78
2021-02-05 19:00:00 15.6 9 Oeste 19 Noroeste 0 -- -- 63
2021-02-05 18:00:00 15.5 10 Oeste 36 Oeste 0 -- -- 67
2021-02-05 17:00:00 16.6 18 Oeste 25 Oeste 0 -- -- 68
2021-02-05 16:00:00 19.4 6 Sudoeste 16 Sudoeste 0 -- -- 54
2021-02-05 15:00:00 20.2 6 Sudeste 15 Este 0 -- -- 45
2021-02-05 14:00:00 20.1 8 Sudeste 14 Sudeste 0 -- -- 43
2021-02-05 13:00:00 19.9 8 Sudeste 22 Sudeste 0 -- -- 45
2021-02-05 12:00:00 19 9 Sudeste 21 Sudeste 0 -- -- 46
2021-02-05 11:00:00 19.1 12 Sudeste 24 Este 0 -- -- 43
2021-02-05 10:00:00 19.2 9 Sudeste 21 Sudeste 0 -- -- 36
2021-02-05 09:00:00 17.7 10 Sudeste 19 Este 0 -- -- 39
2021-02-05 08:00:00 18.1 8 Sudeste 16 Sudeste 0 -- -- 37
2021-02-05 07:00:00 18.3 7 Sudeste 20 Sudeste 0 -- -- 37
2021-02-05 06:00:00 19 12 Sudeste 24 Sudeste 0 -- -- 34
2021-02-05 05:00:00 18.4 8 Sudeste 22 Este 0 -- -- 38
2021-02-05 04:00:00 18.8 11 Sudeste 21 Este 0 -- -- 36
2021-02-05 03:00:00 18.7 4 Sur 28 Sudeste 0 -- -- 35
2021-02-05 02:00:00 17.3 7 Sur 22 Sudeste 0 -- -- 41
2021-02-05 01:00:00 16.5 5 Sur 16 Sudeste 0 -- -- 52
2021-02-05 00:00:00 16.2 4 Sur 9 Sudoeste 0 -- -- 49
2021-02-04 23:00:00 13.2 3 Sur 10 Oeste 0 -- -- 78
2021-02-04 22:00:00 14 0 Calma 12 Sudeste 0 -- -- 75
2021-02-04 21:00:00 16.1 4 Sudoeste 11 Sur 0 -- -- 60
2021-02-04 20:00:00 16 6 Sur 13 Sudoeste 0 -- -- 67
2021-02-04 19:00:00 14.3 2 Sur 8 Noroeste 0 -- -- 75
2021-02-04 18:00:00 14.3 3 Oeste 10 Sudeste 0 -- -- 88
2021-02-04 17:00:00 14.1 7 Sudeste 14 Sudeste 0 -- -- 89
2021-02-04 16:00:00 16 7 Sudeste 17 Sudeste 0 -- -- 78
2021-02-04 15:00:00 16.7 8 Sudeste 17 Este 0 -- -- 71
2021-02-04 14:00:00 16.9 11 Sudeste 19 Este 0 -- -- 58
2021-02-04 13:00:00 18.2 2 Sudeste 15 Sudeste 0 -- -- 52
2021-02-04 12:00:00 17.3 5 Sudeste 15 Sudeste 0 -- -- 53
2021-02-04 11:00:00 15.4 3 Este 17 Sudeste 0 -- -- 78
2021-02-04 10:00:00 16.4 3 Sudeste 15 Sudeste 0 -- -- 63
2021-02-04 09:00:00 15.4 4 Oeste 15 Oeste 0 -- -- 49
2021-02-04 08:00:00 13.1 2 Oeste 13 Sudeste 0 -- -- 57
2021-02-04 07:00:00 13.3 3 Sur 18 Sur 0 -- -- 66
2021-02-04 06:00:00 15.1 4 Sur 13 Sur 0 -- -- 46
2021-02-04 05:00:00 14.3 8 Sudoeste 14 Oeste 0 -- -- 49
2021-02-04 04:00:00 15.1 4 Oeste 9 Sudeste 0 -- -- 49
2021-02-04 03:00:00 14.1 2 Oeste 13 Sudeste 0 -- -- 52
2021-02-04 02:00:00 16.2 3 Sudoeste 12 Sudeste 0 -- -- 46
2021-02-04 01:00:00 15.4 4 Noroeste 8 Sur 0 -- -- 46
2021-02-04 00:00:00 15 4 Oeste 10 Sur 0 -- -- 48
2021-02-03 23:00:00 14.8 0 Calma 6 Sur 0 -- -- 54
2021-02-03 22:00:00 13.6 3 Oeste 12 Sur 0 -- -- 61
2021-02-03 21:00:00 14.5 4 Sur 17 Sudeste 0 -- -- 60
2021-02-03 20:00:00 17.3 3 Sur 19 Noroeste 0 -- -- 46
2021-02-03 19:00:00 19.6 10 Oeste 34 Oeste 0 -- -- 31
2021-02-03 18:00:00 19.9 19 Oeste 38 Oeste 0 -- -- 35
2021-02-03 17:00:00 21.2 19 Oeste 36 Oeste 0 -- -- 33
2021-02-03 16:00:00 22.2 22 Oeste 44 Oeste 0 -- -- 32
2021-02-03 15:00:00 22 19 Oeste 41 Noroeste 0 -- -- 33
2021-02-03 14:00:00 22.4 23 Oeste 44 Oeste 0 -- -- 30
2021-02-03 13:00:00 21.6 18 Noroeste 33 Oeste 0 -- -- 27
2021-02-03 12:00:00 18.1 4 Norte 18 Oeste 0 -- -- 58
2021-02-03 11:00:00 17.1 0 Calma 9 Este 0 -- -- 55
2021-02-03 10:00:00 17.3 2 Sudeste 7 Este 0 -- -- 46
2021-02-03 09:00:00 15.6 0 Calma 10 Sur 0 -- -- 37
2021-02-03 08:00:00 15.2 2 Sudoeste 6 Sudeste 0 -- -- 31
2021-02-03 07:00:00 14.3 3 Sur 7 Sur 0 -- -- 38
2021-02-03 06:00:00 14.6 2 Oeste 5 Sudoeste 0 -- -- 39
2021-02-03 05:00:00 13.7 2 Sur 5 Sudeste 0 -- -- 46
2021-02-03 04:00:00 13.6 2 Noroeste 8 Oeste 0 -- -- 52
2021-02-03 03:00:00 13.9 3 Sudeste 7 Sudeste 0 -- -- 52
2021-02-03 02:00:00 13.8 3 Sur 7 Sur 0 -- -- 55
2021-02-03 01:00:00 15.4 3 Sur 6 Sudoeste 0 -- -- 49
2021-02-03 00:00:00 14.9 0 Calma 7 Sur 0 -- -- 51
2021-02-02 23:00:00 14.2 2 Sur 7 Sudeste 0 -- -- 56
2021-02-02 22:00:00 14.9 2 Sudeste 7 Sudoeste 0 -- -- 55
2021-02-02 21:00:00 13.5 0 Calma 4 Sudoeste 0 -- -- 66
2021-02-02 20:00:00 13.6 0 Calma 6 Sudoeste 0 -- -- 68
2021-02-02 19:00:00 14.6 0 Calma 10 Oeste 0 -- -- 62
2021-02-02 18:00:00 14.8 3 Noroeste 5 Oeste 0 -- -- 65
2021-02-02 17:00:00 17.1 2 Sudeste 8 Sudeste 0 -- -- 57
2021-02-02 16:00:00 18.9 4 Sudeste 9 Sudeste 0 -- -- 49
2021-02-02 15:00:00 18.3 5 Este 13 Nordeste 0 -- -- 49
2021-02-02 14:00:00 19.4 8 Este 14 Este 0 -- -- 44
2021-02-02 13:00:00 19.4 5 Este 12 Sudeste 0 -- -- 45
2021-02-02 12:00:00 19 5 Este 10 Sudeste 0 -- -- 49
2021-02-02 11:00:00 18.5 3 Este 8 Este 0 -- -- 50
2021-02-02 10:00:00 18.7 2 Este 9 Sudeste 0 -- -- 40
2021-02-02 09:00:00 16.3 2 Oeste 9 Oeste 0 -- -- 42
2021-02-02 08:00:00 14.5 6 Oeste 10 Oeste 0 -- -- 45
2021-02-02 07:00:00 14.1 3 Sur 5 Sudeste 0 -- -- 40
2021-02-02 06:00:00 14.1 2 Noroeste 13 Sur 0 -- -- 44
2021-02-02 05:00:00 16.5 4 Sudeste 18 Noroeste 0 -- -- 35
2021-02-02 04:00:00 17.2 6 Noroeste 14 Noroeste 0 -- -- 32
2021-02-02 03:00:00 17.5 9 Oeste 20 Oeste 0 -- -- 34
2021-02-02 02:00:00 17.8 10 Oeste 24 Noroeste 0 -- -- 34
2021-02-02 01:00:00 19 13 Oeste 22 Oeste 0 -- -- 30
2021-02-02 00:00:00 18.3 9 Oeste 18 Oeste 0 -- -- 34
2021-02-01 23:00:00 18.6 12 Oeste 27 Noroeste 0 -- -- 33
2021-02-01 22:00:00 18.5 16 Oeste 29 Noroeste 0 -- -- 37
2021-02-01 21:00:00 19 14 Noroeste 27 Noroeste 0 -- -- 37
2021-02-01 20:00:00 18.8 12 Oeste 44 Oeste 0 -- -- 36
2021-02-01 19:00:00 19.5 23 Oeste 49 Oeste 0 -- -- 38
2021-02-01 18:00:00 19.5 35 Oeste 60 Oeste 0 -- -- 42
2021-02-01 17:00:00 19.8 41 Oeste 65 Oeste 0 -- -- 41
2021-02-01 16:00:00 21.2 42 Oeste 71 Oeste 0 -- -- 35
2021-02-01 15:00:00 21.2 35 Oeste 58 Oeste 0 -- -- 39
2021-02-01 14:00:00 22.8 36 Oeste 65 Noroeste 0 -- -- 30
2021-02-01 13:00:00 22 36 Oeste 57 Oeste 0 -- -- 35
2021-02-01 12:00:00 20.9 36 Oeste 65 Oeste 0 -- -- 39
2021-02-01 11:00:00 20.5 39 Noroeste 78 Noroeste 0 -- -- 36
2021-02-01 10:00:00 18.8 54 Oeste 83 Oeste 0 -- -- 43
2021-02-01 09:00:00 17.8 55 Oeste 80 Oeste 0 -- -- 47
2021-02-01 08:00:00 17.9 56 Oeste 93 Oeste 0 -- -- 48
2021-02-01 07:00:00 18.3 58 Oeste 107 Oeste 0 -- -- 45
2021-02-01 06:00:00 18.7 56 Oeste 91 Oeste 0 -- -- 45
2021-02-01 05:00:00 18 61 Noroeste 97 Oeste 0 -- -- 49
2021-02-01 04:00:00 17.2 58 Noroeste 109 Noroeste 0 -- -- 58
2021-02-01 03:00:00 16.7 62 Noroeste 99 Noroeste 0 -- -- 63
2021-02-01 02:00:00 16.5 48 Noroeste 94 Noroeste 0 -- -- 65
2021-02-01 01:00:00 16.2 35 Oeste 72 Oeste 0 -- -- 66
2021-02-01 00:00:00 16.8 40 Noroeste 73 Noroeste 0 -- -- 62
2021-01-31 23:00:00 16.9 42 Noroeste 71 Noroeste 0 -- -- 62
2021-01-31 22:00:00 17.7 37 Oeste 83 Noroeste 0 -- -- 57
2021-01-31 21:00:00 18.3 45 Noroeste 78 Oeste 0 -- -- 53
2021-01-31 20:00:00 18.5 56 Oeste 87 Noroeste 0 -- -- 52
2021-01-31 19:00:00 18.4 50 Noroeste 86 Oeste 0 -- -- 51
2021-01-31 18:00:00 18.3 59 Noroeste 96 Noroeste 0 -- -- 51
2021-01-31 17:00:00 18.4 53 Noroeste 90 Noroeste 0 -- -- 52
2021-01-31 16:00:00 17.4 45 Oeste 78 Oeste 0 -- -- 56
2021-01-31 15:00:00 17 37 Oeste 65 Oeste 0 -- -- 57
2021-01-31 14:00:00 17.2 36 Oeste 75 Noroeste 0 -- -- 54
2021-01-31 13:00:00 16.7 43 Oeste 84 Oeste 0 -- -- 53
2021-01-31 12:00:00 15.6 44 Oeste 71 Oeste 0 -- -- 54
2021-01-31 11:00:00 14.7 37 Noroeste 67 Oeste 0 -- -- 54
2021-01-31 10:00:00 13.6 22 Noroeste 68 Noroeste 0 -- -- 55
2021-01-31 09:00:00 13 45 Oeste 84 Oeste 0 -- -- 55
2021-01-31 08:00:00 12.9 55 Oeste 91 Oeste 0 -- -- 53
2021-01-31 07:00:00 12.8 52 Oeste 81 Oeste 0 -- -- 51
2021-01-31 06:00:00 12.6 48 Oeste 82 Oeste 0 -- -- 52
2021-01-31 05:00:00 12.9 58 Noroeste 91 Noroeste 0 -- -- 52
2021-01-31 04:00:00 13.3 60 Noroeste 94 Noroeste 0 -- -- 50
2021-01-31 03:00:00 13.5 57 Noroeste 107 Noroeste 0 -- -- 49
2021-01-31 02:00:00 13.9 66 Noroeste 101 Oeste 0 -- -- 48
2021-01-31 01:00:00 14.3 56 Noroeste 89 Oeste 0 -- -- 49
2021-01-31 00:00:00 14.6 41 Noroeste 86 Noroeste 0 -- -- 51